createdAt,value
2023-03-15T01:23:00.595Z,20.33
2023-03-15T01:24:00.674Z,20.33
2023-03-15T01:25:00.747Z,20.32
2023-03-15T01:26:00.814Z,20.32
2023-03-15T01:27:00.875Z,20.33
2023-03-15T01:28:01.020Z,20.33
2023-03-15T01:29:01.008Z,20.33
2023-03-15T02:01:03.004Z,20.32
2023-03-15T02:02:03.032Z,20.32
2023-03-15T02:03:03.059Z,20.32
2023-03-15T02:04:03.099Z,20.32
2023-03-15T02:05:03.149Z,20.32
2023-03-15T02:07:03.247Z,20.31
2023-03-15T02:08:03.291Z,20.31
2023-03-15T02:09:03.342Z,20.32
2023-03-15T02:10:03.425Z,20.32
2023-03-15T02:11:03.443Z,20.32
2023-03-15T02:12:03.487Z,20.32
2023-03-15T02:13:03.621Z,20.32
2023-03-15T02:14:03.614Z,20.31
2023-03-15T02:15:03.683Z,20.31
2023-03-15T02:16:03.781Z,20.32
2023-03-15T02:17:03.821Z,20.31
2023-03-15T02:18:03.882Z,20.31
2023-03-15T02:19:03.942Z,20.31
2023-03-15T02:20:04.011Z,20.31
2023-03-15T02:21:04.068Z,20.31
2023-03-15T02:22:04.130Z,20.31
2023-03-15T02:23:04.208Z,20.31
2023-03-15T02:24:04.253Z,20.31
2023-03-15T02:25:04.313Z,20.31
2023-03-15T02:26:04.371Z,20.31
2023-03-15T02:27:04.507Z,20.31
2023-03-15T02:28:04.490Z,20.31
2023-03-15T02:30:04.623Z,20.30
2023-03-15T04:00:10.670Z,20.29
2023-03-15T04:01:10.744Z,20.29
2023-03-15T04:02:10.800Z,20.29
2023-03-15T04:03:10.815Z,20.29
2023-03-15T04:04:10.877Z,20.29
2023-03-15T04:05:10.952Z,20.30
2023-03-15T04:06:11.142Z,20.31
2023-03-15T04:07:11.075Z,20.31
2023-03-15T04:08:11.144Z,20.32
2023-03-15T04:09:11.200Z,20.32
2023-03-15T04:10:11.250Z,20.34
2023-03-15T04:11:11.314Z,20.34
2023-03-15T04:12:11.396Z,20.34
2023-03-15T04:36:12.537Z,20.50
2023-03-15T06:53:21.250Z,20.63
2023-03-15T06:54:21.098Z,20.63
2023-03-15T06:59:21.092Z,20.64
2023-03-15T07:01:20.630Z,20.64
2023-03-15T07:02:20.695Z,20.64
2023-03-15T07:03:20.717Z,20.64
2023-03-15T07:04:20.772Z,20.64
2023-03-15T07:05:20.853Z,20.64
2023-03-15T07:06:20.905Z,20.64
2023-03-15T07:07:20.956Z,20.64
2023-03-15T07:09:21.080Z,20.64
2023-03-15T07:10:21.128Z,20.65
2023-03-15T09:27:31.577Z,20.15
2023-03-15T09:28:30.694Z,20.29
2023-03-15T09:29:30.772Z,20.42
2023-03-15T09:30:30.895Z,20.55
2023-03-15T09:31:31.032Z,20.67
2023-03-15T09:32:31.155Z,20.78
2023-03-15T09:33:31.223Z,20.88
2023-03-15T09:34:39.894Z,20.99
2023-03-15T09:36:31.415Z,21.17
2023-03-15T09:37:31.454Z,21.25
2023-03-15T09:38:31.496Z,21.32
2023-03-15T09:39:31.540Z,21.38
2023-03-15T09:40:31.582Z,21.45
2023-03-15T09:41:31.613Z,21.51
2023-03-15T09:42:31.662Z,21.55
2023-03-15T09:43:31.694Z,21.61
2023-03-15T09:44:31.732Z,21.64
2023-03-15T09:45:31.776Z,21.67
2023-03-15T09:46:33.106Z,21.72
2023-03-15T09:47:31.836Z,21.75
2023-03-15T09:48:31.874Z,21.77
2023-03-15T09:49:31.908Z,21.82
2023-03-15T09:50:31.949Z,21.85
2023-03-15T09:51:31.982Z,21.88
2023-03-15T09:52:32.026Z,21.91
2023-03-15T09:53:32.045Z,21.95
2023-03-15T09:54:32.088Z,21.96
2023-03-15T10:04:32.573Z,22.15
2023-03-15T10:11:33.083Z,22.27
2023-03-15T10:16:33.652Z,22.36
2023-03-15T10:39:34.738Z,22.66
2023-03-15T12:21:40.657Z,22.59
2023-03-15T12:22:40.741Z,22.57
2023-03-15T12:23:40.828Z,22.54
2023-03-15T12:24:40.933Z,22.53
2023-03-15T12:25:54.066Z,22.50
2023-03-15T12:26:42.032Z,22.48
2023-03-15T12:27:41.045Z,22.45
2023-03-15T12:28:41.070Z,22.44
2023-03-15T12:29:41.115Z,22.41
2023-03-15T12:30:41.183Z,22.40
2023-03-15T12:31:41.173Z,22.39
2023-03-15T12:32:41.221Z,22.37
2023-03-15T12:33:41.231Z,22.35
2023-03-15T12:34:41.267Z,22.33
2023-03-15T12:35:41.313Z,22.31
2023-03-15T12:36:41.386Z,22.29
2023-03-15T12:37:41.505Z,22.28
2023-03-15T12:38:41.563Z,22.26
2023-03-15T12:39:41.636Z,22.25
2023-03-15T12:40:41.712Z,22.24
2023-03-15T12:41:41.804Z,22.23
2023-03-15T12:42:41.873Z,22.22
2023-03-15T12:43:41.943Z,22.20
2023-03-15T12:44:42.021Z,22.19
2023-03-15T12:45:42.103Z,22.18
2023-03-15T12:46:42.173Z,22.17
2023-03-15T12:47:42.268Z,22.16
2023-03-15T12:48:42.333Z,22.15
2023-03-15T12:49:42.387Z,22.14
2023-03-15T12:50:42.490Z,22.13
2023-03-15T12:51:42.564Z,22.12
2023-03-15T12:52:42.630Z,22.11
2023-03-15T12:53:42.710Z,22.10
2023-03-15T12:54:42.785Z,22.09
2023-03-15T12:55:42.874Z,22.08
2023-03-15T12:56:42.936Z,22.07
2023-03-15T12:57:43.020Z,22.06
2023-03-15T12:58:43.101Z,22.05
2023-03-15T12:59:43.725Z,22.04
2023-03-15T13:00:43.254Z,22.03
2023-03-15T13:01:43.418Z,22.03
2023-03-15T13:02:44.516Z,22.01
2023-03-15T13:03:43.508Z,22.00
2023-03-15T13:04:43.604Z,21.99
2023-03-15T13:05:45.205Z,21.98
2023-03-15T13:06:43.724Z,21.98
2023-03-15T13:07:51.154Z,21.97
2023-03-15T13:08:44.807Z,21.95
2023-03-15T13:09:43.841Z,21.95
2023-03-15T13:10:43.881Z,21.95
2023-03-15T13:11:43.928Z,21.93
2023-03-15T13:12:43.964Z,21.94
2023-03-15T13:13:44.044Z,21.92
2023-03-15T13:14:44.049Z,21.91
2023-03-15T13:15:44.131Z,21.90
2023-03-15T13:16:44.120Z,21.89
2023-03-15T13:17:44.163Z,21.87
2023-03-15T13:18:44.202Z,21.86
2023-03-15T13:19:44.240Z,21.85
2023-03-15T13:20:44.277Z,21.83
2023-03-15T13:21:44.321Z,21.82
2023-03-15T13:22:54.866Z,21.81
2023-03-15T13:23:45.392Z,21.80
2023-03-15T13:24:44.431Z,21.80
2023-03-15T13:25:44.458Z,21.79
2023-03-15T13:26:44.502Z,21.78
2023-03-15T13:27:44.536Z,21.78
2023-03-15T13:28:44.573Z,21.78
2023-03-15T13:29:44.613Z,21.77
2023-03-15T13:30:44.673Z,21.77
2023-03-15T13:31:44.715Z,21.76
2023-03-15T13:32:44.771Z,21.76
2023-03-15T13:33:44.767Z,21.76
2023-03-15T13:34:44.830Z,21.75
2023-03-15T13:35:44.899Z,21.75
2023-03-15T13:36:46.204Z,21.74
2023-03-15T13:37:44.935Z,21.73
2023-03-15T13:38:44.998Z,21.73
2023-03-15T13:39:45.011Z,21.73
2023-03-15T13:40:45.054Z,21.72
2023-03-15T13:41:45.093Z,21.72
2023-03-15T13:42:45.140Z,21.72
2023-03-15T13:43:45.179Z,21.71
2023-03-15T13:44:45.239Z,21.71
2023-03-15T13:45:45.262Z,21.70
2023-03-15T13:46:45.347Z,21.69
2023-03-15T13:47:45.323Z,21.69
2023-03-15T13:48:45.351Z,21.68
2023-03-15T13:49:45.385Z,21.68
2023-03-15T13:50:45.430Z,21.67
2023-03-15T13:51:45.481Z,21.67
2023-03-15T13:52:45.500Z,21.67
2023-03-15T13:53:49.831Z,21.66
2023-03-15T13:54:45.602Z,21.65
2023-03-15T13:55:45.614Z,21.65
2023-03-15T13:56:49.666Z,21.64
2023-03-15T13:57:45.692Z,21.63
2023-03-15T13:58:45.742Z,21.63
2023-03-15T13:59:45.775Z,21.63
2023-03-15T14:00:45.822Z,21.62
2023-03-15T14:01:45.928Z,21.62
2023-03-15T14:02:46.000Z,21.61
2023-03-15T14:03:45.985Z,21.61
2023-03-15T15:28:50.674Z,21.18
2023-03-15T15:29:50.767Z,21.17
2023-03-15T15:30:53.179Z,21.17
2023-03-15T15:31:51.049Z,21.17
2023-03-15T15:32:51.108Z,21.16
2023-03-15T15:33:51.115Z,21.15
2023-03-15T15:34:51.218Z,21.15
2023-03-15T15:35:51.336Z,21.15
2023-03-15T15:36:51.392Z,21.15
2023-03-15T15:37:51.499Z,21.14
2023-03-15T15:38:51.580Z,21.14
2023-03-15T15:39:51.659Z,21.13
2023-03-15T15:40:51.751Z,21.13
2023-03-15T15:41:51.863Z,21.12
2023-03-15T17:06:00.686Z,20.88
2023-03-15T17:07:00.776Z,20.89
2023-03-15T17:08:00.892Z,20.88
2023-03-15T17:09:00.978Z,20.88
2023-03-15T17:10:01.107Z,20.88
2023-03-15T17:11:01.203Z,20.88
2023-03-15T17:12:01.305Z,20.87
2023-03-15T17:13:01.402Z,20.87
2023-03-15T17:14:01.519Z,20.87
2023-03-15T17:15:01.632Z,20.86
2023-03-15T17:17:01.840Z,20.87
2023-03-15T17:18:01.950Z,20.87
2023-03-15T17:19:02.063Z,20.87
2023-03-15T18:53:10.673Z,20.73
2023-03-15T18:54:10.764Z,20.73
2023-03-15T18:55:10.868Z,20.73
2023-03-15T18:56:10.955Z,20.72
2023-03-15T18:57:11.061Z,20.71
2023-03-15T18:58:11.211Z,20.72
2023-03-15T18:59:11.244Z,20.71
2023-03-15T19:00:11.343Z,20.71
2023-03-15T19:01:11.437Z,20.71
2023-03-15T19:02:11.571Z,20.71
2023-03-15T19:03:11.644Z,20.71
2023-03-15T20:55:20.665Z,20.63
2023-03-15T20:56:20.734Z,20.63
2023-03-15T20:57:20.789Z,20.63
2023-03-15T20:58:20.875Z,20.63
2023-03-15T20:59:20.929Z,20.63
2023-03-15T21:00:21.409Z,20.63
2023-03-15T21:01:21.130Z,20.63
2023-03-15T21:02:21.090Z,20.63
2023-03-15T21:03:21.210Z,20.62
2023-03-15T21:04:21.207Z,20.62
2023-03-15T21:05:21.302Z,20.62
2023-03-15T21:06:21.357Z,20.63
2023-03-15T21:07:21.428Z,20.62
2023-03-15T21:08:21.545Z,20.63
2023-03-15T21:09:21.518Z,20.62
2023-03-15T21:10:21.922Z,20.63
2023-03-15T21:11:21.681Z,20.62
2023-03-15T21:12:21.744Z,20.62
2023-03-15T21:13:21.804Z,20.62
2023-03-15T21:14:21.862Z,20.63
2023-03-15T21:15:21.918Z,20.62
2023-03-15T21:16:22.039Z,20.62
2023-03-15T21:17:22.067Z,20.62
2023-03-15T21:18:22.100Z,20.63
2023-03-15T21:19:22.154Z,20.62
2023-03-15T21:20:22.491Z,20.62
2023-03-15T21:21:22.281Z,20.62
2023-03-15T21:22:22.322Z,20.62
2023-03-15T21:23:22.399Z,20.62
2023-03-15T21:24:22.423Z,20.61
2023-03-15T21:25:22.476Z,20.62
2023-03-15T21:26:22.555Z,20.62
2023-03-15T21:27:22.620Z,20.62
2023-03-15T21:28:22.666Z,20.62
2023-03-15T21:29:22.712Z,20.62
2023-03-15T21:30:23.034Z,20.61
2023-03-15T21:31:22.879Z,20.61
2023-03-15T21:32:23.003Z,20.62
2023-03-15T21:33:22.950Z,20.61
2023-03-15T21:34:22.999Z,20.61
2023-03-15T21:35:23.077Z,20.62
2023-03-15T21:36:23.076Z,20.62
2023-03-15T21:37:23.124Z,20.61
2023-03-15T21:38:23.187Z,20.61
2023-03-15T21:39:23.222Z,20.61
2023-03-15T21:40:23.643Z,20.62
2023-03-15T21:41:23.370Z,20.61
2023-03-15T21:42:23.435Z,20.61
2023-03-15T21:43:23.484Z,20.61
2023-03-15T21:44:23.524Z,20.62
2023-03-15T21:45:23.612Z,20.61
2023-03-15T21:46:23.739Z,20.61
2023-03-15T21:47:23.661Z,20.61
2023-03-15T21:48:23.754Z,20.61
2023-03-15T21:49:23.804Z,20.61
2023-03-15T21:50:24.098Z,20.61
2023-03-15T21:51:23.914Z,20.61
2023-03-15T21:52:23.953Z,20.60
2023-03-15T21:53:24.006Z,20.60
2023-03-15T21:54:24.052Z,20.61
2023-03-15T21:55:24.114Z,20.61
2023-03-15T21:56:25.973Z,20.60
2023-03-15T21:57:24.260Z,20.60
2023-03-15T21:58:24.304Z,20.60
2023-03-15T21:59:24.389Z,20.60
2023-03-15T22:00:24.708Z,20.60
2023-03-15T22:01:24.608Z,20.60
2023-03-15T22:02:24.607Z,20.60
2023-03-15T22:03:24.666Z,20.60
2023-03-15T22:04:24.807Z,20.60
2023-03-15T22:05:24.779Z,20.60
2023-03-15T22:06:24.852Z,20.59
2023-03-15T22:07:24.911Z,20.59
2023-03-15T22:08:24.984Z,20.60
2023-03-15T22:09:25.051Z,20.60
2023-03-15T22:10:25.450Z,20.60
2023-03-15T22:11:25.175Z,20.59
2023-03-15T22:12:25.258Z,20.59
2023-03-15T22:13:25.280Z,20.60
2023-03-15T22:14:25.337Z,20.59
2023-03-15T22:15:25.396Z,20.59
2023-03-15T22:16:25.570Z,20.59
2023-03-15T22:17:27.308Z,20.58
2023-03-15T22:18:25.545Z,20.58
2023-03-15T22:19:25.585Z,20.59
2023-03-15T22:20:26.010Z,20.58
2023-03-15T22:21:25.687Z,20.59
2023-03-15T22:22:25.734Z,20.58
2023-03-15T22:23:25.785Z,20.58
2023-03-15T22:24:25.822Z,20.58
2023-03-15T22:25:25.869Z,20.58
2023-03-15T22:26:25.909Z,20.58
2023-03-15T22:27:25.961Z,20.58
2023-03-15T22:28:26.009Z,20.57
2023-03-15T22:29:26.049Z,20.57
2023-03-15T22:30:26.523Z,20.57
2023-03-15T22:31:26.166Z,20.57
2023-03-15T22:32:26.225Z,20.58
2023-03-15T22:33:26.240Z,20.57
2023-03-15T22:34:26.281Z,20.57
2023-03-15T22:35:26.379Z,20.56
2023-03-15T22:36:26.389Z,20.57
2023-03-15T22:37:26.422Z,20.57
2023-03-15T22:38:26.486Z,20.57
2023-03-15T22:39:26.517Z,20.57
2023-03-15T22:40:27.055Z,20.57
2023-03-15T22:41:26.606Z,20.57
2023-03-15T22:42:26.652Z,20.57
2023-03-15T22:43:26.707Z,20.57
2023-03-15T22:44:28.437Z,20.57
2023-03-15T22:45:26.813Z,20.57
2023-03-15T22:46:26.895Z,20.56
2023-03-15T22:47:26.899Z,20.57
2023-03-15T22:48:26.943Z,20.57
2023-03-15T22:49:26.999Z,20.57
2023-03-15T22:50:27.373Z,20.57
2023-03-15T22:51:27.081Z,20.57
2023-03-15T22:52:27.145Z,20.57
2023-03-15T22:53:27.170Z,20.57
2023-03-15T22:54:27.219Z,20.57
2023-03-15T22:55:27.265Z,20.57
2023-03-15T22:56:27.304Z,20.56
2023-03-15T22:57:27.346Z,20.57
2023-03-15T22:58:27.396Z,20.56
2023-03-15T22:59:27.419Z,20.56
2023-03-15T23:00:27.855Z,20.57
2023-03-15T23:01:27.525Z,20.56
2023-03-15T23:02:27.562Z,20.56
2023-03-15T23:03:27.581Z,20.56
2023-03-15T23:04:27.640Z,20.56
2023-03-15T23:05:27.676Z,20.56
2023-03-15T23:06:27.734Z,20.56
2023-03-15T23:07:27.928Z,20.56
2023-03-15T23:08:27.814Z,20.56
2023-03-15T23:09:27.861Z,20.55
2023-03-15T23:10:28.339Z,20.55
2023-03-15T23:11:27.952Z,20.56
2023-03-15T23:12:35.809Z,20.56
2023-03-15T23:13:29.040Z,20.55
2023-03-15T23:14:28.081Z,20.56
2023-03-15T23:15:28.116Z,20.56
2023-03-15T23:16:28.205Z,20.55
2023-03-15T23:17:28.213Z,20.56
2023-03-15T23:18:28.251Z,20.56
2023-03-15T23:19:28.299Z,20.56
2023-03-15T23:20:28.839Z,20.56
2023-03-15T23:21:28.376Z,20.55
2023-03-15T23:22:28.415Z,20.56
2023-03-15T23:23:28.471Z,20.56
2023-03-15T23:24:28.512Z,20.55
2023-03-15T23:25:28.556Z,20.56
2023-03-15T23:26:28.600Z,20.55
2023-03-15T23:27:28.648Z,20.55
2023-03-15T23:28:28.692Z,20.56
2023-03-15T23:29:28.736Z,20.55
2023-03-15T23:30:29.098Z,20.56
2023-03-15T23:31:28.849Z,20.55
2023-03-15T23:32:28.900Z,20.56
2023-03-15T23:33:28.941Z,20.56
2023-03-15T23:34:28.997Z,20.55
2023-03-15T23:35:29.086Z,20.55
2023-03-15T23:36:29.117Z,20.55
2023-03-15T23:37:29.177Z,20.55
2023-03-15T23:38:29.242Z,20.55
2023-03-15T23:39:29.311Z,20.56
2023-03-15T23:40:29.694Z,20.56
